This is the latest recevied weather packets stored in our database for station/object KC1DMA. If no packets are shown the sender has not sent any weather packets the latest 10 day(s).
| Time | Temp. | Humidity | Pressure | Rain* | Wind** | Luminosity | Snow |
|---|---|---|---|---|---|---|---|
| 1777070730 | 15° C | 40% | 1012.6 hPa | - | - | 108 W/m² | - |
| 1777070426 | 15° C | 40% | 1012.4 hPa | - | - | 108 W/m² | - |
| 1777070125 | 15° C | 40% | 1012 hPa | - | - | 108 W/m² | - |
| 1777069820 | 15° C | 40% | 1012.2 hPa | - | - | 108 W/m² | - |
| 1777069519 | 15° C | 40% | 1012 hPa | - | - | 108 W/m² | - |
| 1777068003 | 16.11° C | 29% | 1011.9 hPa | - | - | 360 W/m² | - |
| 1777067703 | 16.11° C | 29% | 1011.7 hPa | - | - | 360 W/m² | - |
| 1777067397 | 16.11° C | 29% | 1011.7 hPa | - | - | 360 W/m² | - |
| 1777067096 | 16.11° C | 29% | 1011.5 hPa | - | - | 360 W/m² | - |
| 1777066792 | 16.11° C | 29% | 1011.5 hPa | - | - | 360 W/m² | - |
| 1777066488 | 16.11° C | 29% | 1011.5 hPa | - | - | 360 W/m² | - |
| 1777066183 | 16.11° C | 29% | 1011.5 hPa | - | - | 360 W/m² | - |
| 1777065883 | 16.11° C | 29% | 1011.5 hPa | - | - | 360 W/m² | - |
| 1777065579 | 16.11° C | 29% | 1011.5 hPa | - | - | 360 W/m² | - |
| 1777065273 | 16.11° C | 29% | 1011.4 hPa | - | - | 360 W/m² | - |
| 1777064970 | 16.11° C | 29% | 1011.2 hPa | - | - | 360 W/m² | - |
| 1777064667 | 16.11° C | 29% | 1011.3 hPa | - | - | 360 W/m² | - |
| 1777064363 | 16.67° C | 28% | 1011.2 hPa | - | - | 383 W/m² | - |
| 1777064060 | 17.22° C | 28% | 1010.9 hPa | - | - | 386 W/m² | - |
| 1777063759 | 16.67° C | 27% | 1011 hPa | - | - | 402 W/m² | - |
| 1777063455 | 16.11° C | 30% | 1010.9 hPa | - | - | 421 W/m² | - |
| 1777063151 | 16.11° C | 32% | 1011 hPa | - | - | 437 W/m² | - |
| 1777062848 | 16.67° C | 28% | 1010.8 hPa | - | - | 464 W/m² | - |
| 1777062544 | 16.67° C | 28% | 1010.8 hPa | - | - | 464 W/m² | - |
| 1777062237 | 16.67° C | 27% | 1010.6 hPa | - | - | 487 W/m² | - |
* Rain since midnight (hover to see other rain measurements)
** Current wind speed in m/s (hover to see current wind gust speed)